createdAt,value
2022-12-15T04:44:16.367Z,-0.63
2022-12-15T04:47:38.355Z,-0.63
2022-12-15T04:50:59.457Z,-1.05
2022-12-15T04:54:20.983Z,-0.92
2022-12-15T04:57:42.127Z,-0.85
2022-12-15T05:01:03.613Z,-0.72
2022-12-15T05:04:24.924Z,-0.72
2022-12-15T05:07:46.205Z,-0.78
2022-12-15T05:11:07.346Z,-0.83
2022-12-15T05:14:28.882Z,-0.80
2022-12-15T05:17:49.971Z,-0.65
2022-12-15T05:21:11.396Z,-0.54
2022-12-15T05:24:33.875Z,-0.51
2022-12-15T05:27:55.367Z,-0.58
2022-12-15T05:31:16.234Z,-0.58
2022-12-15T05:34:21.364Z,-0.65
2022-12-15T05:37:23.795Z,-0.58
2022-12-15T05:40:26.778Z,-0.49
2022-12-15T05:43:29.704Z,-0.49
2022-12-15T05:46:32.798Z,-0.32
2022-12-15T05:49:35.803Z,-0.23
2022-12-15T05:52:38.457Z,-0.29
2022-12-15T05:55:40.892Z,-0.39
2022-12-15T05:58:45.588Z,-0.44
2022-12-15T06:01:48.521Z,-0.42
2022-12-15T06:04:51.459Z,-0.37
2022-12-15T06:07:54.593Z,-0.44
2022-12-15T06:10:57.272Z,-0.46
2022-12-15T06:14:00.351Z,-0.41
2022-12-15T06:17:04.581Z,-0.25
2022-12-15T06:20:07.736Z,-0.28
2022-12-15T06:23:10.594Z,-0.29
2022-12-15T06:26:20.916Z,-0.30
2022-12-15T06:29:23.800Z,-0.17
2022-12-15T06:32:26.557Z,-0.12
2022-12-15T06:35:29.466Z,-0.05
2022-12-15T06:38:33.032Z,-0.07
2022-12-15T06:41:35.976Z,0.16
2022-12-15T06:44:38.583Z,0.09
2022-12-15T06:47:41.348Z,0.07
2022-12-15T06:50:45.562Z,0.23
2022-12-15T06:53:54.265Z,0.25
2022-12-15T06:56:57.028Z,0.30
2022-12-15T06:59:59.860Z,0.35
2022-12-15T07:03:04.238Z,0.40
2022-12-15T07:06:10.833Z,0.46
2022-12-15T07:09:16.725Z,0.56
2022-12-15T07:12:19.686Z,0.52
2022-12-15T07:15:22.301Z,0.58
2022-12-15T07:18:26.146Z,0.64
2022-12-15T07:21:28.694Z,0.70
2022-12-15T07:24:31.620Z,0.58
2022-12-15T07:27:34.227Z,0.65
2022-12-15T07:30:40.247Z,0.79
2022-12-15T07:33:43.056Z,0.87
2022-12-15T07:36:51.762Z,0.87
2022-12-15T07:39:54.600Z,1.16
2022-12-15T07:42:57.436Z,1.22
2022-12-15T07:46:00.109Z,1.27
2022-12-15T07:49:03.276Z,1.31
2022-12-15T07:52:05.834Z,1.37
2022-12-15T07:55:08.821Z,1.40
2022-12-15T07:58:11.507Z,1.55
2022-12-15T08:01:15.487Z,1.54
2022-12-15T08:04:18.658Z,1.51
2022-12-15T08:07:22.131Z,1.46
2022-12-15T08:10:25.010Z,1.58
2022-12-15T08:14:00.581Z,1.65
2022-12-15T08:16:50.391Z,1.79
2022-12-15T08:19:58.519Z,1.79
2022-12-15T08:23:01.850Z,1.80
2022-12-15T08:26:07.742Z,1.98
2022-12-15T08:29:49.092Z,2.22
2022-12-15T08:32:35.281Z,2.26
2022-12-15T08:35:56.493Z,2.14
2022-12-15T08:39:01.401Z,2.18
2022-12-15T08:42:05.801Z,2.32
2022-12-15T08:45:09.297Z,2.31
2022-12-15T08:48:12.250Z,2.41
2022-12-15T08:51:15.619Z,2.54
2022-12-15T08:54:19.686Z,2.61
2022-12-15T08:57:22.357Z,2.41
2022-12-15T09:00:25.400Z,2.43
2022-12-15T09:03:28.202Z,2.37
2022-12-15T09:06:33.084Z,2.43
2022-12-15T09:09:35.513Z,2.44
2022-12-15T09:12:38.336Z,2.48
2022-12-15T09:16:08.437Z,2.50
2022-12-15T09:19:07.279Z,2.85
2022-12-15T09:22:09.940Z,3.04
2022-12-15T09:25:13.042Z,3.19
2022-12-15T09:28:15.610Z,3.37
2022-12-15T09:31:21.987Z,3.39
2022-12-15T09:34:24.754Z,3.45
2022-12-15T09:37:27.515Z,3.61
2022-12-15T09:40:30.153Z,3.80
2022-12-15T09:43:46.249Z,3.85
2022-12-15T09:47:07.128Z,3.71
2022-12-15T09:50:12.704Z,3.93
2022-12-15T09:53:53.046Z,3.95
2022-12-15T09:56:49.889Z,3.88
2022-12-15T10:00:07.542Z,4.26
2022-12-15T10:03:32.829Z,4.50
2022-12-15T10:06:50.618Z,4.39
2022-12-15T10:09:53.973Z,4.06
2022-12-15T10:13:02.440Z,4.04
2022-12-15T10:16:18.221Z,3.83
2022-12-15T10:19:37.437Z,3.55
2022-12-15T10:22:40.545Z,3.29
2022-12-15T10:25:56.744Z,3.31
2022-12-15T10:29:08.716Z,3.44
2022-12-15T10:32:51.208Z,3.59
2022-12-15T10:35:55.487Z,3.66
2022-12-15T10:38:59.227Z,3.74
2022-12-15T10:42:16.578Z,3.59
2022-12-15T10:45:38.083Z,3.50
2022-12-15T10:48:42.715Z,3.54
2022-12-15T10:51:57.270Z,3.52
2022-12-15T10:55:00.330Z,3.42
2022-12-15T10:58:14.145Z,3.70
2022-12-15T11:01:24.371Z,3.88
2022-12-15T11:04:33.925Z,4.06
2022-12-15T11:07:41.517Z,4.14
2022-12-15T11:11:12.442Z,4.15
2022-12-15T11:14:28.648Z,4.02
2022-12-15T11:17:42.003Z,3.88
2022-12-15T11:20:57.176Z,3.82
2022-12-15T11:24:09.318Z,3.92
2022-12-15T11:27:26.586Z,4.01
2022-12-15T11:30:42.631Z,4.10
2022-12-15T11:33:45.549Z,4.10
2022-12-15T11:37:41.658Z,4.02
2022-12-15T11:40:45.073Z,3.70
2022-12-15T11:43:59.787Z,3.78
2022-12-15T11:47:04.096Z,3.85
2022-12-15T11:50:51.806Z,3.72
2022-12-15T11:54:07.816Z,3.84
2022-12-15T11:57:13.175Z,3.78
2022-12-15T12:00:21.880Z,3.83
2022-12-15T12:03:58.869Z,3.80
2022-12-15T12:07:22.734Z,3.56
2022-12-15T12:11:00.902Z,3.59
2022-12-15T12:14:32.061Z,3.64
2022-12-15T12:17:37.817Z,3.62
2022-12-15T12:20:47.256Z,3.65
2022-12-15T12:24:04.133Z,3.70
2022-12-15T12:27:33.953Z,3.64
2022-12-15T12:30:45.951Z,3.68
2022-12-15T12:33:58.743Z,3.72
2022-12-15T12:37:21.607Z,3.72
2022-12-15T12:40:56.976Z,3.71
2022-12-15T12:44:08.986Z,3.66
2022-12-15T12:47:26.302Z,3.65
2022-12-15T12:50:31.441Z,3.55
2022-12-15T12:53:34.952Z,3.55
2022-12-15T12:56:44.381Z,3.68
2022-12-15T12:59:51.680Z,3.60
2022-12-15T13:03:12.636Z,3.55
2022-12-15T13:06:33.968Z,3.59
2022-12-15T13:09:42.597Z,3.68
2022-12-15T13:12:53.283Z,3.56
2022-12-15T13:16:25.734Z,3.57
2022-12-15T13:20:10.425Z,3.50
2022-12-15T13:23:19.441Z,3.24
2022-12-15T13:26:22.496Z,3.01
2022-12-15T13:29:26.666Z,2.97
2022-12-15T13:32:39.096Z,2.99
2022-12-15T13:35:42.892Z,3.00
2022-12-15T13:38:54.536Z,3.05
2022-12-15T13:45:37.842Z,2.92
2022-12-15T13:48:51.545Z,2.85
2022-12-15T13:52:00.395Z,2.72
2022-12-15T13:55:14.928Z,2.58
2022-12-15T13:58:18.735Z,2.48
2022-12-15T14:01:32.261Z,2.38
2022-12-15T14:04:35.740Z,2.32
2022-12-15T14:07:49.533Z,2.40
2022-12-15T14:11:00.026Z,2.38
2022-12-15T14:14:03.367Z,2.24
2022-12-15T14:17:11.270Z,2.21
2022-12-15T14:20:21.202Z,2.26
2022-12-15T14:23:25.823Z,2.21
2022-12-15T14:26:31.004Z,2.15
2022-12-15T14:29:33.809Z,2.18
2022-12-15T14:32:36.948Z,2.21
2022-12-15T14:35:43.468Z,2.17
2022-12-15T14:39:01.977Z,2.10
2022-12-15T14:42:07.644Z,2.09
2022-12-15T14:45:23.905Z,2.05
2022-12-15T14:48:53.531Z,2.04
2022-12-15T14:52:03.100Z,1.97
2022-12-15T14:55:37.929Z,1.93
2022-12-15T14:58:41.505Z,1.99
2022-12-15T15:03:15.837Z,1.94
2022-12-15T15:05:27.747Z,1.94
2022-12-15T15:08:34.220Z,1.97
2022-12-15T15:11:40.433Z,1.93
2022-12-15T15:14:52.708Z,1.97
2022-12-15T15:17:59.089Z,1.87
2022-12-15T15:21:06.433Z,1.93
2022-12-15T15:24:11.965Z,1.87
2022-12-15T15:27:27.006Z,1.86
2022-12-15T15:30:40.710Z,1.93
2022-12-15T15:33:43.636Z,1.95
2022-12-15T15:36:46.173Z,1.94
2022-12-15T15:39:50.821Z,1.93
2022-12-15T15:42:53.591Z,1.91
2022-12-15T15:46:06.702Z,1.92
2022-12-15T15:49:16.308Z,1.92
2022-12-15T15:52:19.129Z,1.86
2022-12-15T15:55:27.587Z,1.88
2022-12-15T15:58:30.692Z,1.86
2022-12-15T16:01:33.649Z,1.89
2022-12-15T16:04:37.371Z,1.84
2022-12-15T16:07:40.560Z,1.87
2022-12-15T16:10:46.065Z,1.91
2022-12-15T16:13:48.886Z,1.93
2022-12-15T16:16:54.747Z,1.94
2022-12-15T16:19:57.489Z,2.02
2022-12-15T16:23:03.477Z,2.00
2022-12-15T16:26:06.022Z,1.95
2022-12-15T16:29:18.516Z,1.93
